메인 페이지
METAR-TAF:

METAR-TAF

공항 :

미니애폴리스 세인트폴 국제공항

미니애폴리스, 미네소타, 미국

위도: 44-52-59N, 경도: 093-13-44W, 고도: 256m

현재 날씨관측

예보는 20분 전, 05:53시(UTC)에 발표되었습니다.
북북동11kt
온도 22°C
습도 57%
기압 1018 hPa
시정: 16.1km
고도 5000ft 상공 구름 조금
고도 7000ft 상공 구름 많음
고도 9500ft 상공 구름 많음

METAR: KMSP 170553Z 03011KT 10SM FEW050 BKN070 BKN095 22/13 A3007 RMK AO2 SLP177 T02220128 10283 20222 403000178 51015

시각: 01:13 (06:13 UTC)

예보

예보는 53분 전, 05:20시(UTC)에 발표되었습니다.
예보 대상 시간: 17일 06시부터 18일 12시까지 (UTC)
북북동8kt
시정: 10km
고도 6000ft 상공 구름 많음
17일 1800시부터 (UTC)
6kt
시정: 10km
고도 6000ft 상공 구름 보통
18일 0200시부터 (UTC)
여러 방향의 바람 3kt
시정: 10km
고도 25000ft 상공 구름 조금

TAF: KMSP 170520Z 1706/1812 02008KT P6SM BKN060 FM171800 35006KT P6SM SCT060 FM180200 VRB03KT P6SM FEW250

4,000개 이상의 공항 관측 자료 및 예보 (METAR 및 TAF 보고).

지도상에서 검색 가능한 기상관측소가 노란 점과 빨간 점으로 표시되어 있습니다.

기상관측소 명을 보려면 표시 위로 마우스를 이동하세요.

날씨 관측과 예보를 보려면 클릭하세요.

지도 변경 : 확대하려면 엑스 표시가 있는 녹색 버튼, 축소하려면 빼기 표시가 있는 녹색 버튼, 다음 페이지의 지도를 보려면 녹색 화살표를 클릭하세요.


METAR-TAF: